Time;durP1;ratioP1;P1;durP2;ratioP2;P2;SDS_P1;SDS_P2;PMS_P1;PMS_P2;Temp;Humidity;BMP_temperature;BMP_pressure;BME280_temperature;BME280_humidity;BME280_pressure;Samples;Min_cycle;Max_cycle;Signal;HPM_P1;HPM_P2
2022/03/28 00:02:16;;;;;;;;;;;8.80;90.40;;;;;;5031572;28;20015;-58
2022/03/28 00:04:43;;;;;;;;;;;8.80;90.90;;;;;;5031348;28;19995;-58
2022/03/28 00:07:09;;;;;;;;;;;8.70;91.50;;;;;;5031511;28;19990;-58
2022/03/28 00:09:36;;;;;;;;;;;8.40;92.00;;;;;;5031577;28;19925;-57
2022/03/28 00:12:03;;;;;;;;;;;8.40;92.40;;;;;;5030622;28;19947;-57
2022/03/28 00:14:31;;;;;;;;;;;8.40;93.00;;;;;;5030030;28;19928;-57
2022/03/28 00:16:58;;;;;;;;;;;8.40;92.80;;;;;;5031081;28;20355;-57
2022/03/28 00:19:24;;;;;;;;;;;8.20;93.40;;;;;;5031370;28;19971;-57
2022/03/28 00:21:51;;;;;;;;;;;8.00;94.10;;;;;;5030881;28;19925;-57
2022/03/28 00:24:18;;;;;;;;;;;7.90;94.10;;;;;;5031122;28;19925;-57
2022/03/28 00:26:45;;;;;;;;;;;7.70;95.20;;;;;;5030288;28;19987;-57
2022/03/28 00:29:11;;;;;;;;;;;7.70;95.30;;;;;;5030797;28;20320;-58
2022/03/28 00:31:39;;;;;;;;;;;7.60;95.50;;;;;;5030921;28;19925;-58
2022/03/28 00:34:07;;;;;;;;;;;7.50;95.70;;;;;;5031104;28;19929;-58
2022/03/28 00:36:34;;;;;;;;;;;7.50;96.40;;;;;;5031300;28;20115;-58
2022/03/28 00:39:00;;;;;;;;;;;7.60;96.10;;;;;;5030676;28;19991;-58
2022/03/28 00:41:27;;;;;;;;;;;7.60;95.90;;;;;;5030816;28;19925;-59
2022/03/28 00:43:55;;;;;;;;;;;7.60;96.20;;;;;;5031142;28;19972;-58
2022/03/28 00:46:22;;;;;;;;;;;7.70;96.00;;;;;;5030875;28;19929;-58
2022/03/28 00:48:51;;;;;;;;;;;7.60;96.30;;;;;;5031422;28;19979;-58
2022/03/28 00:51:18;;;;;;;;;;;7.70;95.90;;;;;;5030703;28;19994;-58
2022/03/28 00:53:45;;;;;;;;;;;7.70;96.10;;;;;;5030619;28;19925;-58
2022/03/28 00:56:14;;;;;;;;;;;7.80;95.80;;;;;;5030248;28;19976;-57
2022/03/28 00:58:41;;;;;;;;;;;7.90;95.30;;;;;;5030419;28;19925;-58
2022/03/28 01:01:11;;;;;;;;;;;7.90;95.30;;;;;;5030837;28;19925;-58
2022/03/28 01:03:38;;;;;;;;;;;7.80;95.60;;;;;;5024385;28;19932;-57
2022/03/28 01:06:09;;;;;;;;;;;7.80;95.80;;;;;;5034772;28;20304;-57
2022/03/28 01:08:36;;;;;;;;;;;7.60;95.90;;;;;;5034234;28;19991;-57
2022/03/28 01:11:04;;;;;;;;;;;7.50;96.50;;;;;;5034168;28;19926;-57
2022/03/28 01:13:32;;;;;;;;;;;7.40;96.60;;;;;;5033892;28;19925;-57
2022/03/28 01:15:59;;;;;;;;;;;7.30;97.20;;;;;;5034183;28;19979;-57
2022/03/28 01:18:25;;;;;;;;;;;7.20;97.60;;;;;;5034408;28;19971;-58
2022/03/28 01:20:55;;;;;;;;;;;7.40;97.40;;;;;;5034022;28;19921;-58
2022/03/28 01:23:21;;;;;;;;;;;7.50;97.10;;;;;;5034046;28;19947;-57
2022/03/28 01:25:51;;;;;;;;;;;7.50;96.90;;;;;;5034375;28;19925;-58
2022/03/28 01:28:18;;;;;;;;;;;7.50;96.90;;;;;;5033375;28;20305;-58
2022/03/28 01:30:45;;;;;;;;;;;7.30;97.00;;;;;;5034419;28;19929;-57
2022/03/28 01:33:12;;;;;;;;;;;7.20;97.40;;;;;;5034092;28;19952;-57
2022/03/28 01:35:40;;;;;;;;;;;7.10;97.80;;;;;;5034588;28;19929;-58
2022/03/28 01:38:09;;;;;;;;;;;7.00;98.10;;;;;;5034083;28;19929;-58
2022/03/28 01:40:36;;;;;;;;;;;7.00;98.60;;;;;;5033101;28;19979;-58
2022/03/28 01:43:03;;;;;;;;;;;6.80;99.10;;;;;;5033823;28;19971;-58
2022/03/28 01:45:30;;;;;;;;;;;6.80;99.00;;;;;;5034259;28;19925;-57
2022/03/28 01:47:57;;;;;;;;;;;6.90;99.30;;;;;;5034045;28;19979;-57
2022/03/28 01:50:24;;;;;;;;;;;6.90;98.90;;;;;;5034186;28;20389;-58
2022/03/28 01:52:51;;;;;;;;;;;6.80;99.00;;;;;;5033036;28;19956;-57
2022/03/28 01:55:19;;;;;;;;;;;6.70;99.50;;;;;;5033478;28;19987;-57
2022/03/28 01:57:46;;;;;;;;;;;6.90;99.80;;;;;;5034173;28;20285;-57
2022/03/28 02:00:14;;;;;;;;;;;6.80;99.90;;;;;;5033801;28;19971;-59
2022/03/28 02:02:40;;;;;;;;;;;6.80;99.90;;;;;;5034201;28;19925;-58
2022/03/28 02:05:11;;;;;;;;;;;6.70;99.90;;;;;;5033145;28;19987;-57
2022/03/28 02:07:38;;;;;;;;;;;6.90;99.90;;;;;;5034112;28;19948;-57
2022/03/28 02:10:05;;;;;;;;;;;6.80;99.90;;;;;;5033971;28;20343;-57
2022/03/28 02:12:33;;;;;;;;;;;6.70;99.90;;;;;;5033390;28;19929;-58
2022/03/28 02:15:00;;;;;;;;;;;6.50;99.90;;;;;;5032605;28;19990;-58
2022/03/28 02:17:27;;;;;;;;;;;6.50;99.90;;;;;;5033336;28;19968;-58
2022/03/28 02:19:54;;;;;;;;;;;6.50;99.90;;;;;;5033935;28;20389;-58
2022/03/28 02:22:20;;;;;;;;;;;6.40;99.90;;;;;;5033582;28;20347;-58
2022/03/28 02:24:47;;;;;;;;;;;6.40;99.90;;;;;;5033635;28;19979;-57
2022/03/28 02:27:14;;;;;;;;;;;6.50;99.90;;;;;;5033918;28;19929;-58
2022/03/28 02:29:42;;;;;;;;;;;6.40;99.90;;;;;;5033251;28;20290;-57
2022/03/28 02:32:09;;;;;;;;;;;6.30;99.90;;;;;;5032388;28;20361;-58
2022/03/28 02:34:36;;;;;;;;;;;6.30;99.90;;;;;;5033252;28;19979;-58
2022/03/28 02:37:03;;;;;;;;;;;6.20;99.90;;;;;;5033334;28;19983;-58
2022/03/28 02:39:30;;;;;;;;;;;6.10;99.90;;;;;;5033108;28;19994;-57
2022/03/28 02:41:56;;;;;;;;;;;6.00;99.90;;;;;;5032751;28;19925;-58
2022/03/28 02:44:23;;;;;;;;;;;6.10;99.90;;;;;;5033518;28;19978;-58
2022/03/28 02:46:51;;;;;;;;;;;6.30;99.90;;;;;;5034438;28;20515;-58
2022/03/28 02:49:19;;;;;;;;;;;6.20;99.90;;;;;;5033610;28;20301;-58
2022/03/28 02:51:46;;;;;;;;;;;6.20;99.90;;;;;;5034112;28;20011;-58
2022/03/28 02:54:13;;;;;;;;;;;6.30;99.90;;;;;;5034382;28;19925;-58
2022/03/28 02:56:39;;;;;;;;;;;6.30;99.90;;;;;;5033406;28;19944;-58
2022/03/28 02:59:06;;;;;;;;;;;6.20;99.90;;;;;;5032329;28;19931;-57
2022/03/28 03:01:33;;;;;;;;;;;6.10;99.90;;;;;;5033123;28;19941;-57
2022/03/28 03:04:01;;;;;;;;;;;5.90;99.90;;;;;;5033354;28;19978;-58
2022/03/28 03:06:28;;;;;;;;;;;6.00;99.90;;;;;;5034288;28;20074;-58
2022/03/28 03:08:54;;;;;;;;;;;6.00;99.90;;;;;;5033019;28;20393;-58
2022/03/28 03:11:22;;;;;;;;;;;5.80;99.90;;;;;;5032694;28;19933;-58
2022/03/28 03:13:49;;;;;;;;;;;5.70;99.90;;;;;;5032941;28;20451;-57
2022/03/28 03:16:16;;;;;;;;;;;5.60;99.90;;;;;;5033320;28;20008;-57
2022/03/28 03:18:43;;;;;;;;;;;5.60;99.90;;;;;;5033670;28;19937;-57
2022/03/28 03:21:13;;;;;;;;;;;5.50;99.90;;;;;;5032560;28;19987;-57
2022/03/28 03:23:39;;;;;;;;;;;5.70;99.90;;;;;;5032256;28;19937;-57
2022/03/28 03:26:06;;;;;;;;;;;5.50;99.90;;;;;;5030707;28;19984;-57
2022/03/28 03:28:33;;;;;;;;;;;5.50;99.90;;;;;;5031553;28;19929;-57
2022/03/28 03:30:59;;;;;;;;;;;5.40;99.90;;;;;;5024840;28;19929;-56
2022/03/28 03:33:26;;;;;;;;;;;5.30;99.90;;;;;;5013041;28;20459;-56
2022/03/28 03:35:54;;;;;;;;;;;5.20;99.90;;;;;;5026610;28;20415;-56
2022/03/28 03:38:22;;;;;;;;;;;5.20;99.90;;;;;;5031984;28;19925;-57
2022/03/28 03:40:49;;;;;;;;;;;5.20;99.90;;;;;;5035329;28;19971;-57
2022/03/28 03:43:16;;;;;;;;;;;5.30;99.90;;;;;;5035217;28;19925;-57
2022/03/28 03:45:42;;;;;;;;;;;5.30;99.90;;;;;;5035095;28;19933;-57
2022/03/28 03:48:09;;;;;;;;;;;5.20;99.90;;;;;;5030504;28;19933;-57
2022/03/28 03:50:36;;;;;;;;;;;5.10;99.90;;;;;;5027628;28;19929;-57
2022/03/28 03:53:02;;;;;;;;;;;5.10;99.90;;;;;;5032171;28;19925;-57
2022/03/28 03:55:31;;;;;;;;;;;5.00;99.90;;;;;;5031849;28;20041;-57
2022/03/28 03:57:57;;;;;;;;;;;5.00;99.90;;;;;;5016895;28;19992;-57
2022/03/28 04:00:24;;;;;;;;;;;5.00;99.90;;;;;;5017570;28;20273;-57
2022/03/28 04:02:51;;;;;;;;;;;4.90;99.90;;;;;;5017864;28;19926;-57
2022/03/28 04:05:18;;;;;;;;;;;4.90;99.90;;;;;;5038733;23;19925;-50
2022/03/28 04:07:45;;;;;;;;;;;4.80;99.90;;;;;;5030028;28;19963;-51
2022/03/28 04:10:12;;;;;;;;;;;4.80;99.90;;;;;;5029176;28;20397;-48
2022/03/28 04:12:40;;;;;;;;;;;4.80;99.90;;;;;;5027312;28;19925;-50
2022/03/28 04:15:08;;;;;;;;;;;4.80;99.90;;;;;;5030730;28;20347;-49
2022/03/28 04:17:39;;;;;;;;;;;4.80;99.90;;;;;;5006906;28;19987;-51
2022/03/28 04:20:06;;;;;;;;;;;4.80;99.90;;;;;;5004077;28;19977;-51
2022/03/28 04:22:33;;;;;;;;;;;4.90;99.90;;;;;;5008013;28;20305;-51
2022/03/28 04:25:00;;;;;;;;;;;4.90;99.90;;;;;;5010160;28;20261;-50
2022/03/28 04:27:27;;;;;;;;;;;5.00;99.90;;;;;;5002371;28;20480;-49
2022/03/28 04:29:55;;;;;;;;;;;4.90;99.90;;;;;;5008880;28;19926;-51
2022/03/28 04:32:22;;;;;;;;;;;4.80;99.90;;;;;;5004419;28;19932;-50
2022/03/28 04:34:49;;;;;;;;;;;4.70;99.90;;;;;;4992502;28;19932;-50
2022/03/28 04:37:16;;;;;;;;;;;4.60;99.90;;;;;;4991970;28;19932;-50
2022/03/28 04:39:43;;;;;;;;;;;4.50;99.90;;;;;;4995830;28;19970;-50
2022/03/28 04:42:09;;;;;;;;;;;4.40;99.90;;;;;;5004950;28;19929;-50
2022/03/28 04:44:36;;;;;;;;;;;4.40;99.90;;;;;;5014427;28;20448;-51
2022/03/28 04:47:04;;;;;;;;;;;4.40;99.90;;;;;;5016309;28;20381;-51
2022/03/28 04:49:31;;;;;;;;;;;4.40;99.90;;;;;;5021137;28;20520;-50
2022/03/28 04:51:58;;;;;;;;;;;4.40;99.90;;;;;;5016522;28;19980;-48
2022/03/28 04:54:25;;;;;;;;;;;4.40;99.90;;;;;;5014823;28;19979;-50
2022/03/28 04:56:52;;;;;;;;;;;4.40;99.90;;;;;;5014640;28;19926;-49
2022/03/28 04:59:19;;;;;;;;;;;4.40;99.90;;;;;;5013272;28;19926;-50
2022/03/28 05:01:45;;;;;;;;;;;4.40;99.90;;;;;;5013450;28;20344;-49
2022/03/28 05:04:14;;;;;;;;;;;4.40;99.90;;;;;;5013878;28;19926;-49
2022/03/28 05:06:40;;;;;;;;;;;4.30;99.90;;;;;;5013639;28;19925;-49
2022/03/28 05:09:07;;;;;;;;;;;4.30;99.90;;;;;;5015377;28;20527;-50
2022/03/28 05:11:34;;;;;;;;;;;4.30;99.90;;;;;;5023789;28;19925;-49
2022/03/28 05:14:02;;;;;;;;;;;4.30;99.90;;;;;;5013678;28;19925;-50
2022/03/28 05:16:29;;;;;;;;;;;4.30;99.90;;;;;;5014031;28;19929;-50
2022/03/28 05:18:56;;;;;;;;;;;4.30;99.90;;;;;;5013790;28;19955;-50
2022/03/28 05:21:24;;;;;;;;;;;4.40;99.90;;;;;;5013483;28;19925;-49
2022/03/28 05:23:51;;;;;;;;;;;4.60;99.90;;;;;;5021427;28;19925;-50
2022/03/28 05:26:17;;;;;;;;;;;4.60;99.90;;;;;;5018817;28;20421;-49
2022/03/28 05:28:44;;;;;;;;;;;4.90;99.90;;;;;;5020735;28;19925;-48
2022/03/28 05:31:11;;;;;;;;;;;4.90;99.90;;;;;;5013891;28;19926;-50
2022/03/28 05:33:38;;;;;;;;;;;5.00;99.90;;;;;;5016922;28;19945;-49
2022/03/28 05:36:05;;;;;;;;;;;5.00;99.90;;;;;;5024938;28;19929;-50
2022/03/28 05:38:33;;;;;;;;;;;5.10;99.90;;;;;;5013260;28;19979;-50
2022/03/28 05:41:00;;;;;;;;;;;5.10;99.90;;;;;;5021447;28;19925;-50
2022/03/28 05:43:27;;;;;;;;;;;5.20;99.90;;;;;;5022127;28;19925;-49
2022/03/28 05:45:54;;;;;;;;;;;5.40;99.90;;;;;;5011529;28;19925;-49
2022/03/28 05:48:22;;;;;;;;;;;5.60;99.90;;;;;;5013951;28;19933;-50
2022/03/28 05:50:49;;;;;;;;;;;5.80;99.90;;;;;;5013836;28;20325;-49
2022/03/28 05:53:16;;;;;;;;;;;6.00;99.90;;;;;;5016695;28;19925;-51
2022/03/28 05:55:44;;;;;;;;;;;6.20;99.90;;;;;;5017214;28;19933;-49
2022/03/28 05:58:11;;;;;;;;;;;6.50;99.90;;;;;;5013554;28;19925;-50
2022/03/28 06:00:38;;;;;;;;;;;6.70;99.90;;;;;;5015856;28;19929;-49
2022/03/28 06:03:05;;;;;;;;;;;6.90;99.90;;;;;;4994010;28;19926;-50
2022/03/28 06:05:32;;;;;;;;;;;7.30;99.90;;;;;;5011302;28;19933;-51
2022/03/28 06:07:59;;;;;;;;;;;8.90;99.90;;;;;;5016110;28;19937;-49
2022/03/28 06:10:26;;;;;;;;;;;11.10;99.90;;;;;;5011464;28;19929;-48
2022/03/28 06:12:54;;;;;;;;;;;13.10;99.90;;;;;;5002401;28;20003;-49
2022/03/28 06:15:21;;;;;;;;;;;15.00;95.90;;;;;;5010231;28;19973;-48
2022/03/28 06:17:48;;;;;;;;;;;16.50;90.80;;;;;;4997633;28;20306;-49
2022/03/28 06:20:16;;;;;;;;;;;17.90;84.10;;;;;;5010335;28;19925;-50
2022/03/28 06:22:43;;;;;;;;;;;19.00;78.20;;;;;;5011586;28;19925;-49
2022/03/28 06:25:10;;;;;;;;;;;19.90;75.50;;;;;;5012620;28;20385;-49
2022/03/28 06:27:40;;;;;;;;;;;20.80;72.30;;;;;;5009082;28;19926;-50
2022/03/28 06:30:11;;;;;;;;;;;21.50;65.90;;;;;;5012804;28;19925;-50
2022/03/28 06:32:38;;;;;;;;;;;21.60;65.80;;;;;;5009610;28;19929;-53
2022/03/28 06:35:06;;;;;;;;;;;22.40;65.30;;;;;;5012109;28;19929;-50
2022/03/28 06:37:33;;;;;;;;;;;23.00;63.80;;;;;;5012242;28;19937;-51
2022/03/28 06:40:00;;;;;;;;;;;23.70;60.70;;;;;;5012160;28;19980;-50
2022/03/28 06:42:27;;;;;;;;;;;24.30;57.70;;;;;;5010606;28;19925;-50
2022/03/28 06:44:54;;;;;;;;;;;24.60;55.90;;;;;;5012488;28;20463;-49
2022/03/28 06:47:22;;;;;;;;;;;22.80;55.10;;;;;;5012018;28;20412;-49
2022/03/28 06:49:49;;;;;;;;;;;23.30;56.50;;;;;;5012887;28;20303;-50
2022/03/28 06:52:15;;;;;;;;;;;23.00;54.50;;;;;;5012577;28;19971;-49
2022/03/28 06:54:42;;;;;;;;;;;22.90;56.10;;;;;;5012933;28;19980;-49
2022/03/28 06:57:09;;;;;;;;;;;23.50;54.60;;;;;;5012319;28;19980;-50
2022/03/28 06:59:36;;;;;;;;;;;22.00;55.70;;;;;;5012524;28;19925;-50
2022/03/28 07:02:02;;;;;;;;;;;23.40;56.30;;;;;;5011183;28;20372;-52
2022/03/28 07:04:31;;;;;;;;;;;23.50;54.90;;;;;;5012306;28;19980;-52
2022/03/28 07:06:57;;;;;;;;;;;24.20;53.60;;;;;;5012278;28;19925;-50
2022/03/28 07:09:24;;;;;;;;;;;24.70;53.10;;;;;;5012550;28;19925;-50
2022/03/28 07:11:51;;;;;;;;;;;25.00;52.90;;;;;;5012042;28;19926;-50
2022/03/28 07:14:17;;;;;;;;;;;25.00;52.50;;;;;;5012539;28;19929;-50
2022/03/28 07:16:44;;;;;;;;;;;25.50;54.10;;;;;;5012473;28;20377;-50
2022/03/28 07:19:11;;;;;;;;;;;25.90;51.40;;;;;;5012500;28;20020;-50
2022/03/28 07:21:39;;;;;;;;;;;26.10;49.30;;;;;;5011574;28;19996;-51
2022/03/28 07:24:06;;;;;;;;;;;26.70;51.10;;;;;;5012276;28;20389;-51
2022/03/28 07:26:33;;;;;;;;;;;26.70;50.10;;;;;;5011444;28;19979;-50
2022/03/28 07:29:02;;;;;;;;;;;26.30;49.30;;;;;;5012070;28;20008;-51
2022/03/28 07:31:29;;;;;;;;;;;26.00;50.70;;;;;;5011560;28;19925;-50
2022/03/28 07:34:29;;;;;;;;;;;27.50;48.70;;;;;;5011451;28;19937;-51
2022/03/28 07:36:45;;;;;;;;;;;28.70;47.90;;;;;;5011670;28;19931;-51
2022/03/28 07:39:12;;;;;;;;;;;29.30;46.20;;;;;;5012254;28;19957;-51
2022/03/28 07:41:39;;;;;;;;;;;29.30;45.70;;;;;;5011618;28;20017;-51
2022/03/28 07:44:05;;;;;;;;;;;28.70;44.70;;;;;;5012037;28;19925;-50
2022/03/28 07:46:33;;;;;;;;;;;29.40;44.20;;;;;;5012166;28;19929;-51
2022/03/28 07:48:59;;;;;;;;;;;29.80;43.30;;;;;;5012261;28;19929;-51
2022/03/28 07:51:26;;;;;;;;;;;30.30;43.60;;;;;;5011339;28;20000;-51
2022/03/28 07:53:54;;;;;;;;;;;30.50;42.80;;;;;;5011935;28;19980;-51
2022/03/28 07:56:21;;;;;;;;;;;30.10;42.30;;;;;;5011031;28;19926;-51
2022/03/28 07:58:48;;;;;;;;;;;29.60;42.40;;;;;;5011670;28;20522;-51
2022/03/28 08:01:15;;;;;;;;;;;30.10;42.20;;;;;;5011346;28;19925;-51
2022/03/28 08:03:42;;;;;;;;;;;30.90;42.20;;;;;;5011696;28;19925;-51
2022/03/28 08:06:09;;;;;;;;;;;30.30;42.30;;;;;;5013881;28;19972;-52
2022/03/28 08:08:37;;;;;;;;;;;29.80;42.20;;;;;;5014386;28;19932;-52
2022/03/28 08:11:07;;;;;;;;;;;30.10;41.90;;;;;;5012314;28;19926;-53
2022/03/28 08:13:34;;;;;;;;;;;28.90;42.40;;;;;;5011214;28;20433;-52
2022/03/28 08:16:01;;;;;;;;;;;29.90;42.10;;;;;;5011516;28;20316;-52
2022/03/28 08:18:29;;;;;;;;;;;30.70;41.00;;;;;;5011565;28;20428;-52
2022/03/28 08:20:56;;;;;;;;;;;30.90;42.60;;;;;;5011446;28;19926;-52
2022/03/28 08:23:23;;;;;;;;;;;31.30;40.40;;;;;;5011289;28;19925;-52
2022/03/28 08:25:51;;;;;;;;;;;30.80;40.70;;;;;;5011161;28;20348;-53
2022/03/28 08:28:19;;;;;;;;;;;30.80;39.80;;;;;;5011518;28;20470;-53
2022/03/28 08:30:46;;;;;;;;;;;30.50;42.10;;;;;;5011648;28;19930;-52
2022/03/28 08:33:13;;;;;;;;;;;31.30;41.60;;;;;;5011232;28;19932;-52
2022/03/28 08:35:40;;;;;;;;;;;31.60;39.70;;;;;;5011157;28;19979;-52
2022/03/28 08:38:07;;;;;;;;;;;31.50;39.00;;;;;;5011073;28;20029;-52
2022/03/28 08:40:34;;;;;;;;;;;30.90;39.70;;;;;;5011368;28;19925;-53
2022/03/28 08:43:03;;;;;;;;;;;30.20;40.10;;;;;;5011117;28;19925;-53
2022/03/28 08:45:31;;;;;;;;;;;30.50;40.40;;;;;;5011418;28;20016;-52
2022/03/28 08:47:59;;;;;;;;;;;30.40;40.70;;;;;;5011466;28;19929;-53
2022/03/28 08:50:26;;;;;;;;;;;29.80;42.10;;;;;;5011456;28;19936;-52
2022/03/28 08:52:53;;;;;;;;;;;30.30;40.00;;;;;;5010313;28;19929;-52
2022/03/28 08:55:21;;;;;;;;;;;31.60;41.20;;;;;;5011301;28;20360;-53
2022/03/28 08:57:48;;;;;;;;;;;31.60;39.10;;;;;;5009281;28;19932;-53
2022/03/28 09:00:15;;;;;;;;;;;31.70;39.10;;;;;;5003300;28;19987;-53
2022/03/28 09:02:44;;;;;;;;;;;32.30;38.30;;;;;;4997685;28;20425;-53
2022/03/28 09:05:12;;;;;;;;;;;32.40;38.40;;;;;;5006074;28;19980;-53
2022/03/28 09:07:39;;;;;;;;;;;32.10;41.30;;;;;;5009793;28;19933;-53
2022/03/28 09:10:07;;;;;;;;;;;30.70;42.10;;;;;;4998670;28;20420;-53
2022/03/28 09:12:39;;;;;;;;;;;30.50;44.40;;;;;;5010693;28;19933;-52
2022/03/28 09:15:09;;;;;;;;;;;32.20;41.20;;;;;;5011226;28;20007;-52
2022/03/28 09:17:39;;;;;;;;;;;32.70;41.30;;;;;;5010941;28;20020;-52
2022/03/28 09:20:07;;;;;;;;;;;33.60;37.60;;;;;;5010888;28;19929;-52
2022/03/28 09:22:35;;;;;;;;;;;33.10;37.40;;;;;;5010518;28;19995;-52
2022/03/28 09:25:03;;;;;;;;;;;32.80;37.50;;;;;;5009555;28;19933;-52
2022/03/28 09:27:31;;;;;;;;;;;32.10;39.80;;;;;;4995139;28;19989;-53
2022/03/28 09:30:02;;;;;;;;;;;31.90;42.20;;;;;;5006407;28;20347;-53
2022/03/28 09:32:29;;;;;;;;;;;32.40;40.50;;;;;;5013724;28;19930;-52
2022/03/28 09:35:11;;;;;;;;;;;31.50;42.80;;;;;;5014246;28;19980;-52
2022/03/28 09:37:51;;;;;;;;;;;31.20;40.90;;;;;;5014010;28;20344;-53
2022/03/28 09:40:39;;;;;;;;;;;29.80;42.80;;;;;;5014200;28;19932;-54
2022/03/28 09:43:07;;;;;;;;;;;29.60;45.90;;;;;;5008924;28;19937;-53
2022/03/28 09:45:37;;;;;;;;;;;30.10;47.90;;;;;;5013957;28;20309;-52
2022/03/28 09:48:06;;;;;;;;;;;30.70;46.70;;;;;;5014343;28;20374;-53
2022/03/28 09:50:37;;;;;;;;;;;31.30;46.00;;;;;;5014180;28;20389;-52
2022/03/28 09:53:11;;;;;;;;;;;31.40;45.70;;;;;;5013478;28;19944;-55
2022/03/28 09:55:47;;;;;;;;;;;31.10;45.30;;;;;;5013484;28;19926;-53
2022/03/28 09:58:29;;;;;;;;;;;30.50;46.20;;;;;;5013976;28;19926;-53
2022/03/28 10:00:55;;;;;;;;;;;30.50;47.30;;;;;;5013999;28;19964;-52
2022/03/28 10:03:23;;;;;;;;;;;30.70;46.50;;;;;;5013124;28;19925;-53
2022/03/28 10:05:52;;;;;;;;;;;31.20;46.50;;;;;;5038575;22;19930;-59
2022/03/28 10:08:19;;;;;;;;;;;31.40;46.60;;;;;;5034247;28;19925;-59
2022/03/28 10:10:46;;;;;;;;;;;31.30;47.30;;;;;;5033380;28;19979;-59
2022/03/28 10:13:13;;;;;;;;;;;30.60;47.50;;;;;;5033564;28;19991;-59
2022/03/28 10:15:40;;;;;;;;;;;28.50;49.20;;;;;;5032596;28;19979;-58
2022/03/28 10:18:07;;;;;;;;;;;28.80;48.90;;;;;;5034123;28;19979;-59
2022/03/28 10:20:33;;;;;;;;;;;29.40;47.80;;;;;;5033468;28;19926;-59
2022/03/28 10:23:02;;;;;;;;;;;28.60;48.50;;;;;;5032348;28;19929;-59
2022/03/28 10:25:29;;;;;;;;;;;28.00;48.00;;;;;;5033660;28;19933;-59
2022/03/28 10:27:56;;;;;;;;;;;26.00;50.20;;;;;;5033228;28;20426;-59
2022/03/28 10:30:27;;;;;;;;;;;25.50;51.40;;;;;;5033177;28;19926;-58
2022/03/28 10:33:10;;;;;;;;;;;25.50;51.00;;;;;;5032340;28;19995;-56
2022/03/28 10:35:37;;;;;;;;;;;25.40;51.40;;;;;;5031972;28;19988;-57
2022/03/28 10:38:18;;;;;;;;;;;24.70;49.90;;;;;;5033205;28;20312;-57
2022/03/28 10:40:58;;;;;;;;;;;24.20;52.40;;;;;;5032510;28;19983;-57
2022/03/28 10:43:26;;;;;;;;;;;24.30;52.70;;;;;;5032175;28;19937;-57
2022/03/28 10:45:55;;;;;;;;;;;24.00;51.70;;;;;;5032661;28;19984;-57
2022/03/28 10:48:33;;;;;;;;;;;23.80;51.20;;;;;;5032778;28;20016;-57
2022/03/28 10:51:03;;;;;;;;;;;24.40;50.90;;;;;;5032567;28;19933;-57
2022/03/28 10:53:37;;;;;;;;;;;23.40;50.10;;;;;;5030188;28;19933;-57
2022/03/28 10:56:05;;;;;;;;;;;23.50;50.10;;;;;;5031662;28;20392;-57
2022/03/28 10:58:33;;;;;;;;;;;23.20;49.90;;;;;;5032397;28;19925;-58
2022/03/28 11:01:18;;;;;;;;;;;22.80;53.00;;;;;;5032159;28;19925;-57
2022/03/28 11:03:46;;;;;;;;;;;21.30;53.60;;;;;;5031795;28;20349;-57
2022/03/28 11:06:13;;;;;;;;;;;20.40;55.60;;;;;;5031733;28;19991;-57
2022/03/28 11:08:42;;;;;;;;;;;20.30;56.10;;;;;;5032508;28;20404;-57
2022/03/28 11:11:20;;;;;;;;;;;20.10;55.50;;;;;;5030797;28;19932;-57
2022/03/28 11:13:57;;;;;;;;;;;20.70;56.90;;;;;;5031353;28;19980;-59
2022/03/28 11:16:39;;;;;;;;;;;20.70;56.90;;;;;;5032088;28;19935;-58
2022/03/28 11:19:29;;;;;;;;;;;20.60;57.60;;;;;;5032806;28;19929;-57
2022/03/28 11:21:57;;;;;;;;;;;20.80;56.90;;;;;;5032092;28;19925;-57
2022/03/28 11:24:38;;;;;;;;;;;21.30;54.70;;;;;;5031863;28;19925;-58
2022/03/28 11:27:07;;;;;;;;;;;21.40;56.20;;;;;;5030641;28;20446;-57
2022/03/28 11:29:33;;;;;;;;;;;20.50;57.90;;;;;;5031199;28;19925;-57
2022/03/28 11:32:04;;;;;;;;;;;20.60;55.00;;;;;;5031361;28;19925;-57
2022/03/28 11:34:32;;;;;;;;;;;20.90;53.70;;;;;;5031867;28;19929;-56
2022/03/28 11:36:59;;;;;;;;;;;20.90;55.90;;;;;;5031773;28;19925;-56
2022/03/28 11:39:27;;;;;;;;;;;20.40;58.40;;;;;;5031624;28;20098;-56
2022/03/28 11:41:54;;;;;;;;;;;20.10;56.90;;;;;;5031256;28;19964;-56
2022/03/28 11:44:24;;;;;;;;;;;20.10;59.60;;;;;;5031646;28;19929;-56
2022/03/28 11:46:54;;;;;;;;;;;19.70;58.10;;;;;;5030591;28;20375;-56
2022/03/28 11:49:21;;;;;;;;;;;19.50;58.60;;;;;;5031184;28;19929;-58
2022/03/28 11:51:49;;;;;;;;;;;20.00;57.30;;;;;;5031411;28;19975;-58
2022/03/28 11:54:16;;;;;;;;;;;19.80;59.30;;;;;;5031044;28;19925;-58
2022/03/28 11:59:26;;;;;;;;;;;19.10;59.50;;;;;;5030031;28;19936;-58
2022/03/28 12:01:56;;;;;;;;;;;19.60;58.80;;;;;;5030814;28;19948;-56
2022/03/28 12:04:22;;;;;;;;;;;19.30;58.50;;;;;;5027836;28;19960;-56
2022/03/28 12:06:51;;;;;;;;;;;19.20;62.90;;;;;;5030688;28;19933;-56
2022/03/28 12:09:18;;;;;;;;;;;18.90;58.50;;;;;;5024842;28;20004;-56
2022/03/28 12:11:47;;;;;;;;;;;18.60;59.10;;;;;;5030674;28;19979;-56
2022/03/28 12:14:14;;;;;;;;;;;19.00;57.80;;;;;;5031150;28;19968;-58
2022/03/28 12:16:47;;;;;;;;;;;19.50;58.30;;;;;;5031290;28;19929;-58
2022/03/28 12:19:17;;;;;;;;;;;19.90;55.90;;;;;;5030783;28;19925;-57
2022/03/28 12:21:46;;;;;;;;;;;19.90;55.40;;;;;;5031010;28;19929;-56
2022/03/28 12:24:13;;;;;;;;;;;20.00;57.40;;;;;;5030657;28;19925;-56
2022/03/28 12:26:43;;;;;;;;;;;20.40;53.60;;;;;;5031242;28;20003;-57
2022/03/28 12:29:11;;;;;;;;;;;20.20;54.00;;;;;;5030936;28;19929;-56
2022/03/28 12:31:41;;;;;;;;;;;19.90;56.90;;;;;;5030951;28;19979;-56
2022/03/28 12:34:10;;;;;;;;;;;19.90;55.50;;;;;;5030094;28;19925;-57
2022/03/28 12:36:36;;;;;;;;;;;20.00;55.50;;;;;;5030488;28;19925;-56
2022/03/28 12:39:06;;;;;;;;;;;20.10;56.00;;;;;;5030653;28;19979;-56
2022/03/28 12:41:39;;;;;;;;;;;20.40;54.70;;;;;;5030468;28;19983;-56
2022/03/28 12:44:06;;;;;;;;;;;20.60;53.50;;;;;;5030794;28;19971;-56
2022/03/28 12:46:33;;;;;;;;;;;20.50;54.70;;;;;;5031011;28;19925;-56
2022/03/28 12:49:08;;;;;;;;;;;20.40;55.20;;;;;;5030846;28;19979;-57
2022/03/28 12:51:37;;;;;;;;;;;19.90;53.90;;;;;;5030964;28;19925;-56
2022/03/28 12:54:05;;;;;;;;;;;19.70;53.50;;;;;;5031046;28;19925;-57
2022/03/28 12:56:42;;;;;;;;;;;19.70;54.40;;;;;;5030824;28;19929;-57
2022/03/28 12:59:08;;;;;;;;;;;19.60;55.10;;;;;;5032496;28;19926;-57
2022/03/28 13:01:35;;;;;;;;;;;19.90;58.70;;;;;;5034795;28;19995;-57
2022/03/28 13:04:09;;;;;;;;;;;20.00;55.70;;;;;;5034319;28;19956;-57
2022/03/28 13:06:40;;;;;;;;;;;20.30;55.80;;;;;;5033471;28;20307;-57
2022/03/28 13:09:07;;;;;;;;;;;20.40;54.30;;;;;;5034199;28;19927;-57
2022/03/28 13:11:34;;;;;;;;;;;20.50;53.80;;;;;;5033551;28;20460;-57
2022/03/28 13:14:01;;;;;;;;;;;20.30;54.00;;;;;;5034014;28;19932;-57
2022/03/28 13:16:28;;;;;;;;;;;20.00;54.50;;;;;;5040497;28;19925;-57
2022/03/28 13:18:59;;;;;;;;;;;20.20;54.70;;;;;;5046372;28;19975;-57
2022/03/28 13:21:29;;;;;;;;;;;20.30;54.10;;;;;;5033984;28;20459;-57
2022/03/28 13:24:02;;;;;;;;;;;20.20;53.00;;;;;;5031272;28;19987;-57
2022/03/28 13:26:39;;;;;;;;;;;20.30;53.90;;;;;;5034336;28;19971;-57
2022/03/28 13:29:20;;;;;;;;;;;20.20;54.00;;;;;;5042799;28;19929;-57
2022/03/28 13:31:47;;;;;;;;;;;20.30;52.80;;;;;;5034992;28;20024;-57
2022/03/28 13:34:13;;;;;;;;;;;20.20;52.80;;;;;;5042985;28;19979;-57
2022/03/28 13:36:44;;;;;;;;;;;20.20;51.90;;;;;;5033128;28;20442;-57
2022/03/28 13:39:12;;;;;;;;;;;20.10;52.80;;;;;;5033341;28;19972;-57
2022/03/28 13:41:42;;;;;;;;;;;20.50;51.80;;;;;;5033153;28;19979;-57
2022/03/28 13:44:09;;;;;;;;;;;20.40;52.20;;;;;;5033153;28;19929;-57
2022/03/28 13:46:36;;;;;;;;;;;20.30;52.20;;;;;;5044991;28;19970;-57
2022/03/28 13:49:03;;;;;;;;;;;20.40;52.20;;;;;;5037659;28;19925;-56
2022/03/28 13:51:30;;;;;;;;;;;20.30;51.90;;;;;;5033101;28;19925;-56
2022/03/28 13:53:58;;;;;;;;;;;20.20;52.50;;;;;;5033282;28;19925;-56
2022/03/28 13:56:27;;;;;;;;;;;20.40;53.20;;;;;;5033082;28;19933;-57
2022/03/28 13:58:53;;;;;;;;;;;20.30;52.80;;;;;;5040205;28;19924;-56
2022/03/28 14:01:21;;;;;;;;;;;20.40;53.40;;;;;;5033320;28;20627;-57
2022/03/28 14:03:48;;;;;;;;;;;20.20;55.10;;;;;;5032910;28;19926;-57
2022/03/28 14:06:15;;;;;;;;;;;20.10;52.50;;;;;;5032721;28;19929;-58
2022/03/28 14:08:42;;;;;;;;;;;20.10;52.30;;;;;;5032952;28;19929;-57
2022/03/28 14:11:10;;;;;;;;;;;20.20;52.50;;;;;;5050277;28;19932;-57
2022/03/28 14:13:40;;;;;;;;;;;20.20;52.20;;;;;;5051114;28;19925;-57
2022/03/28 14:16:07;;;;;;;;;;;20.20;53.50;;;;;;5041367;28;19931;-57
2022/03/28 14:18:34;;;;;;;;;;;20.20;54.30;;;;;;5032530;28;20051;-57
2022/03/28 14:21:01;;;;;;;;;;;20.10;53.10;;;;;;5032569;28;20293;-57
2022/03/28 14:23:28;;;;;;;;;;;20.10;53.10;;;;;;5032382;28;20320;-57
2022/03/28 14:25:55;;;;;;;;;;;19.90;53.10;;;;;;5032488;28;19925;-57
2022/03/28 14:28:22;;;;;;;;;;;19.80;54.00;;;;;;5032336;28;19937;-57
2022/03/28 14:30:50;;;;;;;;;;;20.00;53.50;;;;;;5033232;28;19964;-57
2022/03/28 14:33:17;;;;;;;;;;;20.20;53.50;;;;;;5033078;28;20010;-57